Colt, AR (72326)

1:59 PM CST on March 02, 2015 (GMT -0600)
marianna,arrkansas | Change Station
CLOSE
Current Station
Personal Weather Station
Location: Marianna, AR
Elevation: 230 ft
Nearby Weather Stations
Active Advisory: Winter Storm Watch Active Notice: Public Information Statement

Elev 230 ft 34.77 °N, 90.77 °W | Updated 5 minutes ago

Overcast
Overcast
37.6 °F
Feels Like 33 °F
N
6.3
Wind Variable Wind from NNE

Today
High -- | Low -- °F
--% Chance of Precip.
Yesterday
High -- | Low -- °F
Precip. -- in
6:31 AM 5:59 PM
Waxing Gibbous, 92% visible
Pressure 30.36 in
Visibility 9.0 miles
Clouds Overcast 2800 ft
Windchill 33 °F
Dew Point 35 °F
Humidity 89%
Rainfall 0.05 in
Snow Depth Not available.
UV 2 out of 12
Pollen 5.80 out of 12
Air Quality Not available.
Flu Activity Not available.
METAR KAWM 021953Z AUTO 07005KT 9SM -RA OVC028 04/00 A3036 RMK AO2 RAB53 SLP281 P0000 T00440000

More Conditions Fewer Conditions

Pressure 30.36 in
Visibility 9.0 miles
Clouds Overcast 2800 ft
Windchill 33 °F
Dew Point 35 °F
Humidity 89%
Rainfall 0.05 in
Snow Depth Not available.
UV 2 out of 12
Pollen 5.80 out of 12
Air Quality Not available.
Flu Activity Not available.
METAR KAWM 021953Z AUTO 07005KT 9SM -RA OVC028 04/00 A3036 RMK AO2 RAB53 SLP281 P0000 T00440000

More Conditions Fewer Conditions

10-Day Weather Forecast

Almanac

Astronomy

Mar. 02, 2015 Rise Set
Actual Time
Civil Twilight
Nautical Twilight
Astronomical Twilight
Moon
Length of Visible Light
Length of Day
Tomorrow will be .
, % of the Moon is Illuminated

Today's Extremes

State Highs State Lows

Community

WunderPhotos

Upload Photos

1,801,922 photos uploaded!

WunderBlogs® & News

Nearby

Air Quality

  Air Quality AQ Index Pollutant
Not available.

Snow Depth

Station Depth Elevation

Earthquake Activity

City Distance Mag. Time & Date
Minimum magnitude displayed is 2.5.

Coastal Water Temperatures

Place Temperature

Nearby Weather Stations

Winter Storm Watch
Statement as of 1:50 PM CST on March 02, 2015

... Winter Storm Watch remains in effect from Wednesday afternoon
through late Wednesday night...

* snow/sleet/ice accumulations... significant accumulations of
sleet and some snow are likely.

* Timing... 12 PM CST Wednesday to 6 am CST Thursday.

* Impacts... travel will likely become hazardous.

Precautionary/preparedness actions...

A Winter Storm Watch means there is a potential for significant
snow... sleet... or ice accumulations that may impact travel.
Continue to monitor the latest forecasts.



Jds/jlh